Airfield :
LOGIN :

Register | Disclaimer

   EN    FR    IT 

 










Legend :    VFR   Marginal VFR   IFR   Intensive IFR   Very Intensive IFR
Visi :
Ceiling :
>= 8 km
>= 3000ft
5 to 8 km
1000 to 3000 ft
1500m to 5 km
500 to 1000 ft
800 to 1500m
200 to 500 ft
< 800m
< 200 ft
Symbols :   Thunderstorms  Fog  Heavy snow  Heavy precipitations  Wind > 20 kt
SIGMETs :     Misc.  Thunderstorms  Icing  Turbulence  Mountain Waves  Volcanic Ashes







- Airport Elevation : 327 ft
- IATA code : BHX
- Download approach charts


EGBB - Birmingham

CURRENT METAR :
  • 250650Z 34010KT 2000 -RA OVC004 11/11 Q1018 RERA

EXPIRED METARs :
  • 250620Z 35008KT 2300 -RA OVC005 11/11 Q1019
  • 250550Z 36009KT 4000 BR OVC007 11/10 Q1019
  • 250520Z 36007KT 4500 BR OVC007 11/10 Q1019
  • 250450Z 36008KT 4000 BR BKN005 OVC007 11/11 Q1018
  • 250420Z 35006KT 5000 BR BKN005 OVC008 11/11 Q1018 RERA
  • 250350Z 01008KT 4500 RA OVC007 11/11 Q1018

TAF TAF EGBB
Valid from the 25 at 06:00 until the 26 at 06:00 UTC


250501Z 2506/2606 01007KT 5000 -RA BKN005
TEMPO 2506/2512 3000 SHRA BR
PROB30
TEMPO 2506/2512 +SHRA BKN003
BECMG 2512/2515 9999 NSW FEW010 SCT025
PROB40
TEMPO 2515/2524 8000 BKN014
BECMG 2600/2603 4000 BR BKN004
PROB40 2601/2606 1200 BKN001
ATIS : +44 121 780 0910
No reported NOTAMs for that airfield.



MET'MAP, your aeronautical weather chart ! - Copyright ORBIFLY December 2007 - Disclaimer

ORBIFLY MET'MAP TEAM :

Programming & Development : Alexandra Zaïnal
Concept & Development : Baudouin d'Aumeries
Co-Development & Prog : Marc-Olivier Méhu
Technical & hardware support : Manuel Goepfert

Contact : metmap@orbifly.com




SOURCES & CREDITS :

   NOAA